createdAt,value
2018-05-12T09:43:07.467Z,22.02
2018-05-12T09:45:33.381Z,21.93
2018-05-12T09:47:59.001Z,21.14
2018-05-12T09:50:25.170Z,21.20
2018-05-12T09:52:50.793Z,21.63
2018-05-12T09:55:16.363Z,21.34
2018-05-12T09:57:42.158Z,21.38
2018-05-12T10:00:07.836Z,21.64
2018-05-12T10:02:33.452Z,21.71
2018-05-12T10:04:59.339Z,21.74
2018-05-12T10:07:24.927Z,21.77
2018-05-12T10:09:50.511Z,21.87
2018-05-12T10:12:16.318Z,21.84
2018-05-12T10:14:42.145Z,21.97
2018-05-12T10:17:07.796Z,21.92
2018-05-12T10:19:33.618Z,21.91
2018-05-12T10:21:59.179Z,21.93
2018-05-12T10:24:24.754Z,21.98
2018-05-12T10:26:50.539Z,21.99
2018-05-12T10:29:16.114Z,22.48
2018-05-12T10:31:41.666Z,22.38
2018-05-12T10:34:07.553Z,22.82
2018-05-12T10:36:33.539Z,22.77
2018-05-12T10:38:59.255Z,22.76
2018-05-12T10:41:24.818Z,22.75
2018-05-12T10:43:50.600Z,22.77
2018-05-12T10:46:16.471Z,22.91
2018-05-12T10:48:42.061Z,22.99
2018-05-12T10:51:07.870Z,22.97
2018-05-12T10:53:33.437Z,23.27
2018-05-12T10:55:59.094Z,23.16
2018-05-12T10:58:24.899Z,23.16
2018-05-12T11:00:50.512Z,23.33
2018-05-12T11:03:16.088Z,23.19
2018-05-12T11:05:41.889Z,23.38
2018-05-12T11:08:07.460Z,23.65
2018-05-12T11:10:33.022Z,23.69
2018-05-12T11:12:59.518Z,23.65
2018-05-12T11:15:25.074Z,24.01
2018-05-12T11:17:50.636Z,24.17
2018-05-12T11:20:16.457Z,24.17
2018-05-12T11:22:42.041Z,24.04
2018-05-12T11:25:07.601Z,24.07
2018-05-12T11:27:33.455Z,24.15
2018-05-12T11:29:59.119Z,24.01
2018-05-12T11:32:25.316Z,24.23
2018-05-12T11:34:50.959Z,24.51
2018-05-12T11:37:16.593Z,24.67
2018-05-12T11:39:42.665Z,24.39
2018-05-12T11:42:08.256Z,24.00
2018-05-12T11:44:33.929Z,24.29
2018-05-12T11:46:59.640Z,24.70
2018-05-12T11:49:25.288Z,24.86
2018-05-12T11:51:51.009Z,25.00
2018-05-12T11:54:16.826Z,24.99
2018-05-12T11:56:42.632Z,24.59
2018-05-12T11:59:08.186Z,24.69
2018-05-12T12:01:33.835Z,24.79
2018-05-12T12:03:59.754Z,24.86
2018-05-12T12:06:25.450Z,25.16
2018-05-12T12:08:51.076Z,25.02
2018-05-12T12:11:17.070Z,25.13
2018-05-12T12:13:42.836Z,25.12
2018-05-12T12:16:08.459Z,25.39
2018-05-12T12:18:34.143Z,25.23
2018-05-12T12:20:59.991Z,25.51
2018-05-12T12:23:25.579Z,25.88
2018-05-12T12:25:51.378Z,25.73
2018-05-12T12:28:17.005Z,25.72
2018-05-12T12:30:42.797Z,26.08
2018-05-12T12:33:08.562Z,25.72
2018-05-12T12:35:34.125Z,25.72
2018-05-12T12:37:59.793Z,25.95
2018-05-12T12:40:25.668Z,26.10
2018-05-12T12:42:51.269Z,26.02
2018-05-12T12:45:17.074Z,25.71
2018-05-12T12:47:42.792Z,26.16
2018-05-12T12:50:08.563Z,26.23
2018-05-12T12:52:34.147Z,26.27
2018-05-12T12:55:00.204Z,26.18
2018-05-12T12:57:26.010Z,26.25
2018-05-12T12:59:51.793Z,26.32
2018-05-12T13:02:17.691Z,26.21
2018-05-12T13:07:21.464Z,26.60
2018-05-12T13:09:47.071Z,26.30
2018-05-12T13:12:12.740Z,25.89
2018-05-12T13:14:38.261Z,26.48
2018-05-12T13:17:03.839Z,26.76
2018-05-12T13:19:29.670Z,26.60
2018-05-12T13:21:55.432Z,26.78
2018-05-12T13:24:20.991Z,26.70
2018-05-12T13:26:46.562Z,26.95
2018-05-12T13:29:12.327Z,26.58
2018-05-12T13:31:38.037Z,26.42
2018-05-12T13:34:03.682Z,26.78
2018-05-12T13:36:29.464Z,26.78
2018-05-12T13:38:55.300Z,27.12
2018-05-12T13:41:20.885Z,26.86
2018-05-12T13:43:46.566Z,26.77
2018-05-12T13:46:12.127Z,26.72
2018-05-12T13:48:37.709Z,27.10
2018-05-12T13:51:03.470Z,27.05
2018-05-12T13:53:29.039Z,26.78
2018-05-12T13:55:54.823Z,27.23
2018-05-12T13:58:20.593Z,27.30
2018-05-12T14:00:46.164Z,27.26
2018-05-12T14:03:11.681Z,27.29
2018-05-12T14:05:37.486Z,27.23
2018-05-12T14:08:03.029Z,27.31
2018-05-12T14:10:28.629Z,27.27
2018-05-12T14:12:54.719Z,27.32
2018-05-12T14:15:20.242Z,27.25
2018-05-12T14:17:45.818Z,27.13
2018-05-12T14:20:11.944Z,27.12
2018-05-12T14:22:37.475Z,27.45
2018-05-12T14:25:02.992Z,27.51
2018-05-12T14:27:28.767Z,27.58
2018-05-12T14:29:54.266Z,27.52
2018-05-12T14:32:19.791Z,27.72
2018-05-12T14:34:45.480Z,27.56
2018-05-12T14:37:10.997Z,27.54
2018-05-12T14:39:36.520Z,27.50
2018-05-12T14:42:02.319Z,27.79
2018-05-12T14:44:28.054Z,27.54
2018-05-12T14:46:53.562Z,27.52
2018-05-12T14:49:19.391Z,27.61
2018-05-12T14:51:44.910Z,27.62
2018-05-12T14:54:10.698Z,27.63
2018-05-12T14:56:36.784Z,27.67
2018-05-12T14:59:02.341Z,27.87
2018-05-12T15:01:27.929Z,28.16
2018-05-12T15:03:53.792Z,27.90
2018-05-12T15:06:19.315Z,27.53
2018-05-12T15:08:44.840Z,27.75
2018-05-12T15:11:10.539Z,27.88
2018-05-12T15:13:36.283Z,27.85
2018-05-12T15:16:01.802Z,27.83
2018-05-12T15:18:27.710Z,27.60
2018-05-12T15:20:53.216Z,27.58
2018-05-12T15:23:19.042Z,27.17
2018-05-12T15:25:45.700Z,27.17
2018-05-12T15:28:11.311Z,26.98
2018-05-12T15:30:37.106Z,26.74
2018-05-12T15:33:02.712Z,26.60
2018-05-12T15:35:28.245Z,26.54
2018-05-12T15:37:54.292Z,26.50
2018-05-12T15:40:19.814Z,26.57
2018-05-12T15:42:45.329Z,26.37
2018-05-12T15:45:11.100Z,26.35
2018-05-12T15:47:36.677Z,26.26
2018-05-12T15:50:02.333Z,26.28
2018-05-12T15:52:28.041Z,26.37
2018-05-12T15:54:53.575Z,26.14
2018-05-12T15:57:19.205Z,26.28
2018-05-12T15:59:44.963Z,26.14
2018-05-12T16:02:10.489Z,26.15
2018-05-12T16:04:36.180Z,26.11
2018-05-12T16:07:01.912Z,26.04
2018-05-12T16:09:27.689Z,26.28
2018-05-12T16:11:53.195Z,26.04
2018-05-12T16:14:18.913Z,25.97
2018-05-12T16:16:44.485Z,26.17
2018-05-12T16:19:09.996Z,25.89
2018-05-12T16:21:36.091Z,25.73
2018-05-12T16:24:01.615Z,25.29
2018-05-12T16:26:27.157Z,25.02
2018-05-12T16:28:52.844Z,24.86
2018-05-12T16:31:18.391Z,24.72
2018-05-12T16:33:43.881Z,24.75
2018-05-12T16:36:09.598Z,24.72
2018-05-12T16:38:35.492Z,24.53
2018-05-12T16:41:01.068Z,24.40
2018-05-12T16:43:26.793Z,24.25
2018-05-12T16:45:52.327Z,24.50
2018-05-12T16:48:18.171Z,24.58
2018-05-12T16:50:43.891Z,24.29
2018-05-12T16:53:09.426Z,24.39
2018-05-12T16:55:34.932Z,24.59
2018-05-12T16:58:00.554Z,24.74
2018-05-12T17:00:26.317Z,24.90
2018-05-12T17:02:51.883Z,24.89
2018-05-12T17:05:17.498Z,25.04
2018-05-12T17:07:43.210Z,25.10
2018-05-12T17:10:08.769Z,25.14
2018-05-12T17:12:34.584Z,25.12
2018-05-12T17:15:00.700Z,24.85
2018-05-12T17:17:26.241Z,25.03
2018-05-12T17:19:51.814Z,25.19
2018-05-12T17:22:17.583Z,25.22
2018-05-12T17:24:43.104Z,25.08
2018-05-12T17:27:08.737Z,25.14
2018-05-12T17:29:34.486Z,25.05
2018-05-12T17:32:00.577Z,25.03
2018-05-12T17:34:26.144Z,25.01
2018-05-12T17:36:51.710Z,24.84
2018-05-12T17:39:17.421Z,24.97
2018-05-12T17:41:43.132Z,24.86
2018-05-12T17:44:08.756Z,24.69
2018-05-12T17:46:41.287Z,24.57
2018-05-12T17:49:06.791Z,24.48
2018-05-12T17:51:33.233Z,24.38
2018-05-12T17:53:58.961Z,24.33
2018-05-12T17:56:24.741Z,24.19
2018-05-12T17:58:50.359Z,24.10
2018-05-12T18:01:16.443Z,24.14
2018-05-12T18:03:45.990Z,23.97
2018-05-12T18:06:13.579Z,24.00
2018-05-12T18:08:40.681Z,23.78
2018-05-12T18:11:09.007Z,23.62
2018-05-12T18:13:36.801Z,23.58
2018-05-12T18:16:08.479Z,23.62
2018-05-12T18:18:35.046Z,23.60
2018-05-12T18:21:03.116Z,23.73
2018-05-12T18:23:35.036Z,23.66
2018-05-12T18:26:02.349Z,23.60
2018-05-12T18:28:35.299Z,23.58
2018-05-12T18:31:01.493Z,23.50
2018-05-12T18:33:29.185Z,23.48
2018-05-12T18:35:54.834Z,23.46
2018-05-12T18:38:20.559Z,23.51
2018-05-12T18:40:46.125Z,23.48
2018-05-12T18:43:11.639Z,23.37
2018-05-12T18:45:37.712Z,23.44
2018-05-12T18:48:03.304Z,23.27
2018-05-12T18:50:28.923Z,23.25
2018-05-12T18:52:55.120Z,23.18
2018-05-12T18:55:20.636Z,23.20
2018-05-12T18:57:46.230Z,23.17
2018-05-12T19:00:11.921Z,23.17
2018-05-12T19:02:37.436Z,23.15
2018-05-12T19:05:02.964Z,23.12
2018-05-12T19:07:29.072Z,23.15
2018-05-12T19:09:54.696Z,23.16
2018-05-12T19:12:20.529Z,22.98
2018-05-12T19:14:46.382Z,22.91
2018-05-12T19:17:11.940Z,22.88
2018-05-12T19:19:37.491Z,22.84
2018-05-12T19:22:03.187Z,22.71
2018-05-12T19:24:28.716Z,22.43
2018-05-12T19:26:54.227Z,21.78
2018-05-12T19:29:20.308Z,21.70
2018-05-12T19:31:45.866Z,21.36
2018-05-12T19:34:11.458Z,21.40
2018-05-12T19:36:37.174Z,21.62
2018-05-12T19:39:02.737Z,21.55
2018-05-12T19:41:28.253Z,21.61
2018-05-12T19:43:54.002Z,21.72
2018-05-12T19:46:19.513Z,21.54
2018-05-12T19:48:45.036Z,21.61
2018-05-12T19:51:10.883Z,21.35
2018-05-12T19:53:36.452Z,21.36
2018-05-12T19:56:02.210Z,21.30
2018-05-12T19:58:28.028Z,21.22
2018-05-12T20:00:53.541Z,21.17
2018-05-12T20:03:19.121Z,21.04
2018-05-12T20:05:44.832Z,21.13
2018-05-12T20:08:10.355Z,21.08
2018-05-12T20:10:35.921Z,21.06
2018-05-12T20:13:01.685Z,21.31
2018-05-12T20:15:27.351Z,21.26
2018-05-12T20:17:52.853Z,21.34
2018-05-12T20:20:18.526Z,21.37
2018-05-12T20:22:44.080Z,21.57
2018-05-12T20:25:09.589Z,21.50
2018-05-12T20:27:35.648Z,21.48
2018-05-12T20:30:01.475Z,21.40
2018-05-12T20:32:29.976Z,21.43
2018-05-12T20:34:55.540Z,21.54
2018-05-12T20:37:21.389Z,21.49
2018-05-12T20:39:46.977Z,21.34
2018-05-12T20:42:12.627Z,21.25
2018-05-12T20:44:38.154Z,21.17
2018-05-12T20:47:03.873Z,21.11
2018-05-12T20:49:29.451Z,20.92
2018-05-12T20:51:54.983Z,20.88
2018-05-12T20:54:20.698Z,20.80
2018-05-12T20:56:46.225Z,20.81
2018-05-12T20:59:11.878Z,20.89
2018-05-12T21:01:37.678Z,20.59
2018-05-12T21:04:03.270Z,20.48
2018-05-12T21:06:29.127Z,20.43
2018-05-12T21:08:54.860Z,20.41
2018-05-12T21:11:20.680Z,20.43
2018-05-12T21:13:46.199Z,20.40
2018-05-12T21:16:11.716Z,20.43
2018-05-12T21:18:37.441Z,20.39
2018-05-12T21:21:03.014Z,20.38
2018-05-12T21:23:28.567Z,20.42
2018-05-12T21:25:54.240Z,20.33
2018-05-12T21:28:19.772Z,20.28
2018-05-12T21:30:45.340Z,20.25
2018-05-12T21:33:11.244Z,20.09
2018-05-12T21:35:36.834Z,20.02
2018-05-12T21:38:02.614Z,20.02
2018-05-12T21:40:28.362Z,19.94
2018-05-12T21:42:53.927Z,20.00
2018-05-12T21:45:19.524Z,20.24
2018-05-12T21:47:45.223Z,20.33
2018-05-12T21:50:10.748Z,20.21
2018-05-12T21:52:36.508Z,20.38
2018-05-12T21:55:02.091Z,20.07
2018-05-12T21:57:30.278Z,19.97
2018-05-12T21:59:56.076Z,19.90
2018-05-12T22:02:21.859Z,19.76
2018-05-12T22:04:47.383Z,19.24
2018-05-12T22:07:12.950Z,18.98
2018-05-12T22:09:38.681Z,18.76
2018-05-12T22:12:04.320Z,18.66
2018-05-12T22:14:29.941Z,18.78
2018-05-12T22:16:55.463Z,18.68
2018-05-12T22:19:21.498Z,18.44
2018-05-12T22:21:47.002Z,18.71
2018-05-12T22:24:12.569Z,18.91
2018-05-12T22:26:38.371Z,19.32
2018-05-12T22:29:04.105Z,19.26
2018-05-12T22:31:29.629Z,19.14
2018-05-12T22:33:55.184Z,18.56
2018-05-12T22:36:21.240Z,18.61
2018-05-12T22:38:46.748Z,18.81
2018-05-12T22:41:12.248Z,18.86
2018-05-12T22:43:38.102Z,18.91
2018-05-12T22:46:03.643Z,18.98
2018-05-12T22:48:29.164Z,19.00
2018-05-12T22:50:54.872Z,19.00
2018-05-12T22:53:20.394Z,18.87
2018-05-12T22:55:45.986Z,19.16
2018-05-12T22:58:11.660Z,19.20
2018-05-12T23:00:37.228Z,18.81
2018-05-12T23:03:03.035Z,18.19
2018-05-12T23:05:28.549Z,18.11
2018-05-12T23:07:54.314Z,17.93
2018-05-12T23:10:19.977Z,18.28
2018-05-12T23:12:45.549Z,18.08
2018-05-12T23:15:11.073Z,17.85
2018-05-12T23:17:36.777Z,18.09
2018-05-12T23:20:02.302Z,18.39
2018-05-12T23:22:27.848Z,18.15
2018-05-12T23:24:53.602Z,18.40
2018-05-12T23:27:19.102Z,18.63
2018-05-12T23:29:44.784Z,18.38
2018-05-12T23:32:10.581Z,18.38
2018-05-12T23:34:36.362Z,18.12
2018-05-12T23:37:02.138Z,17.93
2018-05-12T23:39:27.716Z,18.02
2018-05-12T23:41:53.438Z,18.14
2018-05-12T23:44:19.016Z,18.29
2018-05-12T23:46:44.530Z,18.18
2018-05-12T23:49:10.233Z,17.93
2018-05-12T23:51:36.011Z,17.54
2018-05-12T23:54:01.543Z,17.45
2018-05-12T23:56:27.399Z,17.58
2018-05-12T23:58:52.963Z,17.25
